Strona główna
METAR-TAF:

METAR-TAF

Lotnisko :

Port lotniczy Belfast-City George Best

Belfast, Irlandia Północna

Szerokość geograficzna: 54-36N, Długość geograficzna: 005-53W, wysokość: 5 m

Aktualna obserwacja pogody

Raport powstał 30 minut temu, godzina 06:20 UTC
Wiatr 1 kt z kierunków zmiennych
Temperatura 15°C
Wilgotność 67%
Ciśnienie 1026 hPa
Widzialność 10 km lub więcej

METAR: EGAC 010620Z AUTO VRB01KT 9999 NCD 15/09 Q1026

czas: 07:50 (06:50 UTC)

Prognoza

Raport powstał 4 godziny i 55 minut temu, godzina 01:55 UTC
Prognoza ważna od 01 godzina 03 UTC do 01 godzina 12 UTC
Wiatr 8 kt od wschodnio-północny wschód
Widzialność 10 km lub więcej
Brak chmur poniżej 1500 m i brak chmur cumulonimbus
Stopniowe zmiany
od 01 godzina 09 UTC do 01 godzina 12 UTC
Wiatr 10 kt od południowy wschód

TAF: EGAC 010155Z 0103/0112 06008KT CAVOK BECMG 0109/0112 14010KT

Obserwacja i prognoza pogody dla ponad 4000 lotnisk (raport METAR i TAF).

Dostępne stacje oznaczono żółtymi i czerwonymi punktami na mapie.

Najedź kursorem aby zobaczyć nazwę stacji.

Kliknij aby zobaczyć obserwacje i prognozy pogody.

Aby zmienić mapę: kliknij na zielony przycisk z czarnym krzyżykiem, aby powiększyć; na zielony przycisk z myślnikiem, aby pomniejszyć; na zielone strzałki, aby przejść do map sąsiednich.


METAR-TAF: